Time;durP1;ratioP1;P1;durP2;ratioP2;P2;SDS_P1;SDS_P2;PMS_P1;PMS_P2;Temp;Humidity;BMP_temperature;BMP_pressure;BME280_temperature;BME280_humidity;BME280_pressure;Samples;Min_cycle;Max_cycle;Signal;HPM_P1;HPM_P2
2022/08/29 00:01:00;;;;;;;3.85;0.90;;;;;;;23.28;35.99;102087.34;16139654;19;129022;-47
2022/08/29 00:06:26;;;;;;;2.15;1.13;;;;;;;23.27;35.81;102085.63;16141473;19;130185;-46
2022/08/29 00:11:48;;;;;;;2.00;1.02;;;;;;;23.27;35.84;102096.81;16139291;19;130025;-44
2022/08/29 00:17:09;;;;;;;2.55;0.80;;;;;;;23.27;35.76;102084.81;16141776;19;129553;-43
2022/08/29 00:22:31;;;;;;;0.90;0.68;;;;;;;23.26;36.12;102083.09;16142922;19;130577;-43
2022/08/29 00:27:53;;;;;;;2.05;0.90;;;;;;;23.25;35.60;102075.81;16140126;19;129829;-46
2022/08/29 00:33:16;;;;;;;1.67;0.90;;;;;;;23.25;35.95;102081.41;16135731;19;130122;-43
2022/08/29 00:38:38;;;;;;;4.20;0.82;;;;;;;23.23;35.95;102090.06;16138249;19;129250;-46
2022/08/29 00:44:03;;;;;;;1.80;0.90;;;;;;;23.20;35.82;102096.97;16134766;19;129476;-44
2022/08/29 00:49:30;;;;;;;1.83;1.00;;;;;;;23.23;36.22;102090.06;16135021;19;130636;-43
2022/08/29 00:54:54;;;;;;;1.60;0.80;;;;;;;23.21;36.05;102097.81;16139007;19;130352;-46
2022/08/29 01:00:17;;;;;;;1.65;0.80;;;;;;;23.21;36.15;102089.44;16134284;19;130043;-45
2022/08/29 01:05:39;;;;;;;2.38;0.98;;;;;;;23.20;36.02;102098.91;16138854;19;129645;-44
2022/08/29 01:16:47;;;;;;;1.45;0.82;;;;;;;23.19;36.16;102100.00;16137391;19;129910;-44
2022/08/29 01:22:24;;;;;;;1.80;0.83;;;;;;;23.18;36.10;102089.94;16138136;19;130054;-44
2022/08/29 01:27:53;;;;;;;3.35;0.77;;;;;;;23.18;36.14;102098.31;16137604;19;129706;-44
2022/08/29 01:33:15;;;;;;;1.40;0.85;;;;;;;23.17;35.89;102107.78;16132459;19;130393;-43
2022/08/29 01:38:38;;;;;;;2.28;0.80;;;;;;;23.15;35.97;102109.97;16132946;19;129809;-45
2022/08/29 01:44:00;;;;;;;2.20;0.80;;;;;;;23.15;35.93;102102.47;16134148;19;130406;-45
2022/08/29 01:49:23;;;;;;;1.55;0.70;;;;;;;23.13;36.33;102096.28;16131922;19;130786;-43
2022/08/29 01:54:45;;;;;;;3.83;0.82;;;;;;;23.14;36.25;102097.13;16134541;19;130009;-43
2022/08/29 02:00:09;;;;;;;1.05;0.77;;;;;;;23.14;36.31;102094.34;16137813;19;129438;-45
2022/08/29 02:05:35;;;;;;;1.13;0.73;;;;;;;23.11;36.28;102086.47;16130845;19;130478;-45
2022/08/29 02:10:57;;;;;;;1.40;0.80;;;;;;;23.12;36.35;102093.75;16131955;19;129374;-44
2022/08/29 02:16:19;;;;;;;1.70;1.00;;;;;;;23.10;36.34;102084.75;16130904;19;130171;-46
2022/08/29 02:21:40;;;;;;;0.93;0.65;;;;;;;23.11;36.31;102078.09;16135893;19;129072;-45
2022/08/29 02:27:03;;;;;;;3.05;0.82;;;;;;;23.10;36.38;102090.34;16131244;19;129402;-44
2022/08/29 02:32:25;;;;;;;2.85;0.93;;;;;;;23.09;36.39;102077.47;16128472;19;129822;-46
2022/08/29 02:37:47;;;;;;;3.25;0.98;;;;;;;23.09;36.30;102083.06;16131629;19;128850;-45
2022/08/29 02:43:09;;;;;;;1.92;1.10;;;;;;;23.08;36.29;102078.56;16128153;19;129116;-49
2022/08/29 02:48:31;;;;;;;1.35;0.70;;;;;;;23.06;36.66;102084.41;16127209;19;130244;-44
2022/08/29 02:53:54;;;;;;;3.42;0.80;;;;;;;23.07;36.51;102082.47;16123748;19;130173;-44
2022/08/29 02:59:16;;;;;;;1.48;1.05;;;;;;;23.05;36.53;102085.50;16129969;19;129072;-45
2022/08/29 03:04:37;;;;;;;2.30;1.20;;;;;;;23.05;36.54;102068.78;16128930;19;129308;-44
2022/08/29 03:09:59;;;;;;;1.85;0.80;;;;;;;23.03;36.75;102079.31;16129524;19;129344;-47
2022/08/29 03:15:22;;;;;;;2.88;0.82;;;;;;;23.03;36.41;102068.16;16128632;19;131230;-47
2022/08/29 03:20:44;;;;;;;1.90;1.10;;;;;;;23.01;36.21;102065.63;16129374;19;129139;-49
2022/08/29 03:26:07;;;;;;;1.70;1.00;;;;;;;23.01;36.55;102078.72;16129277;19;129693;-46
2022/08/29 03:31:29;;;;;;;2.42;1.05;;;;;;;23.01;36.53;102075.94;16127289;19;129385;-45
2022/08/29 03:36:51;;;;;;;1.98;0.93;;;;;;;22.99;36.33;102078.97;16131537;19;128913;-44
2022/08/29 03:42:12;;;;;;;2.00;0.98;;;;;;;22.98;36.51;102077.28;16140204;19;129108;-43
2022/08/29 03:47:34;;;;;;;2.03;1.30;;;;;;;22.98;36.70;102071.69;16140531;19;130191;-46
2022/08/29 03:52:56;;;;;;;3.63;1.27;;;;;;;22.97;36.63;102067.22;16138796;19;130287;-44
2022/08/29 03:58:18;;;;;;;4.57;1.30;;;;;;;22.96;36.37;102056.28;16141710;19;131146;-44
2022/08/29 04:03:40;;;;;;;5.70;1.40;;;;;;;22.95;36.82;102061.03;16140834;19;129046;-47
2022/08/29 04:09:01;;;;;;;1.80;1.10;;;;;;;22.94;36.66;102070.50;16142983;19;129902;-44
2022/08/29 04:14:24;;;;;;;4.47;1.17;;;;;;;22.94;36.34;102075.25;16137576;19;129515;-43
2022/08/29 04:19:45;;;;;;;2.80;1.30;;;;;;;22.93;36.68;102085.53;16140550;19;129191;-45
2022/08/29 04:25:11;;;;;;;2.67;1.40;;;;;;;22.93;36.70;102091.13;16141112;19;130023;-47
2022/08/29 04:30:33;;;;;;;;;;;;;;;22.88;36.48;102080.69;16140424;19;129765;-46
2022/08/29 04:35:55;;;;;;;3.88;1.13;;;;;;;22.89;36.72;102084.34;16140306;19;130293;-44
2022/08/29 04:41:18;;;;;;;3.13;1.42;;;;;;;22.88;36.76;102094.63;16139868;19;132610;-46
2022/08/29 04:46:40;;;;;;;3.13;1.40;;;;;;;22.87;36.71;102098.50;16136470;19;132323;-46
2022/08/29 04:52:02;;;;;;;2.58;1.25;;;;;;;22.87;36.85;102097.69;16136478;19;129210;-47
2022/08/29 04:57:23;;;;;;;3.28;1.20;;;;;;;22.87;36.91;102097.69;16139589;19;129662;-44
2022/08/29 05:02:46;;;;;;;1.75;1.00;;;;;;;22.86;36.45;102101.56;16137598;19;132022;-44
2022/08/29 05:08:08;;;;;;;3.55;1.23;;;;;;;22.85;36.67;102108.22;16137429;19;129325;-46
2022/08/29 05:13:29;;;;;;;2.20;1.20;;;;;;;22.85;36.90;102106.28;16134334;19;129517;-47
2022/08/29 05:18:51;;;;;;;3.22;1.27;;;;;;;22.84;36.91;102103.75;16138010;19;130343;-44
2022/08/29 05:24:13;;;;;;;2.60;1.20;;;;;;;22.84;36.64;102109.31;16136360;19;129375;-49
2022/08/29 05:29:39;;;;;;;6.07;1.02;;;;;;;22.85;36.83;102116.59;16134898;19;129305;-47
2022/08/29 05:35:02;;;;;;;7.32;1.58;;;;;;;22.84;36.75;102117.69;16132029;19;129052;-45
2022/08/29 05:40:25;;;;;;;7.45;1.60;;;;;;;22.84;37.00;102118.53;16136104;19;129352;-46
2022/08/29 05:45:47;;;;;;;2.90;1.20;;;;;;;22.86;37.16;102135.03;16130806;19;130375;-47
2022/08/29 05:51:20;;;;;;;5.25;1.40;;;;;;;22.85;36.78;102133.34;16134092;19;129502;-48
2022/08/29 05:56:42;;;;;;;4.75;1.48;;;;;;;22.83;37.23;102143.91;16134650;19;129779;-48
2022/08/29 06:02:06;;;;;;;3.95;1.52;;;;;;;22.84;37.39;102148.38;16134169;19;129356;-50
2022/08/29 06:07:29;;;;;;;4.85;1.45;;;;;;;22.87;37.05;102143.16;16134481;19;129329;-49
2022/08/29 06:12:51;;;;;;;7.93;2.15;;;;;;;22.92;37.04;102138.81;16126911;19;130006;-45
2022/08/29 06:18:13;;;;;;;5.13;1.40;;;;;;;22.99;37.11;102142.31;16134501;19;129575;-45
2022/08/29 06:23:35;;;;;;;4.40;1.92;;;;;;;23.04;37.29;102140.47;16133833;19;129110;-47
2022/08/29 06:28:57;;;;;;;5.47;1.20;;;;;;;23.10;37.37;102135.00;16134034;19;131562;-45
2022/08/29 06:34:19;;;;;;;4.32;1.67;;;;;;;23.20;37.37;102135.22;16127037;19;130109;-45
2022/08/29 06:39:41;;;;;;;9.57;1.92;;;;;;;23.31;37.20;102134.31;16127171;19;129983;-45
2022/08/29 06:45:05;;;;;;;4.03;1.60;;;;;;;23.40;36.86;102133.91;16127548;19;129054;-47
2022/08/29 06:50:27;;;;;;;3.92;1.45;;;;;;;23.48;37.07;102128.75;16130857;19;128901;-46
2022/08/29 06:55:48;;;;;;;5.22;1.40;;;;;;;23.51;37.09;102133.00;16131265;19;129036;-46
2022/08/29 07:01:15;;;;;;;5.28;1.63;;;;;;;23.55;37.07;102137.00;16130662;19;129327;-46
2022/08/29 07:06:37;;;;;;;;;;;;;;;23.57;37.30;102139.56;16133523;19;129627;-49
2022/08/29 07:11:59;;;;;;;4.82;1.45;;;;;;;23.55;37.29;102144.53;16138862;19;130001;-47
2022/08/29 07:17:21;;;;;;;4.13;1.70;;;;;;;23.54;37.41;102143.69;16144996;19;129202;-47
2022/08/29 07:22:50;;;;;;;8.02;1.70;;;;;;;23.55;37.26;102148.16;16146137;19;130733;-47
2022/08/29 07:28:11;;;;;;;;;;;;;;;23.49;37.71;102149.19;16143553;19;129516;-46
2022/08/29 07:33:33;;;;;;;6.47;1.83;;;;;;;23.47;37.63;102140.19;16141419;19;130049;-49
2022/08/29 07:38:55;;;;;;;7.35;1.70;;;;;;;23.44;37.81;102151.88;16143771;19;129731;-52
2022/08/29 07:44:18;;;;;;;5.50;1.88;;;;;;;23.42;37.82;102148.47;16140384;19;129930;-45
2022/08/29 07:49:39;;;;;;;8.27;2.08;;;;;;;23.45;37.71;102157.19;16138771;19;130037;-43
2022/08/29 07:55:04;;;;;;;6.10;1.95;;;;;;;23.53;37.73;102147.56;16141362;19;131268;-44
2022/08/29 08:00:27;;;;;;;7.40;1.98;;;;;;;23.52;37.81;102154.25;16138884;19;132188;-46
2022/08/29 08:05:48;;;;;;;10.10;2.30;;;;;;;23.51;37.73;102147.81;16139793;19;129767;-46
2022/08/29 08:11:11;;;;;;;6.55;2.20;;;;;;;23.48;37.25;102142.72;16142913;19;132289;-43
2022/08/29 08:16:34;;;;;;;8.57;2.30;;;;;;;23.49;37.77;102160.34;16133446;19;131797;-44
2022/08/29 08:21:57;;;;;;;4.53;2.05;;;;;;;23.50;37.36;102162.06;16137834;19;130962;-44
2022/08/29 08:27:19;;;;;;;7.60;1.63;;;;;;;23.50;37.47;102157.28;16144359;19;129375;-47
2022/08/29 08:32:41;;;;;;;5.85;2.25;;;;;;;23.50;37.38;102162.88;16137952;19;130187;-44
2022/08/29 08:38:10;;;;;;;6.57;2.28;;;;;;;23.49;37.21;102165.94;16142684;19;129449;-42
2022/08/29 08:43:52;;;;;;;3.78;2.22;;;;;;;23.50;36.64;102162.06;16139546;19;129522;-47
2022/08/29 08:49:41;;;;;;;4.45;1.77;;;;;;;23.49;36.98;102151.97;16136689;19;129414;-47
2022/08/29 08:55:21;;;;;;;6.40;2.30;;;;;;;23.50;36.53;102164.84;16136000;19;129357;-47
2022/08/29 09:00:59;;;;;;;6.78;2.30;;;;;;;23.44;36.19;102158.31;16140644;19;130653;-50
2022/08/29 09:06:59;;;;;;;7.32;3.05;;;;;;;23.34;35.97;102158.94;16139390;19;129444;-45
2022/08/29 09:12:31;;;;;;;13.07;3.45;;;;;;;23.29;35.58;102158.84;16135738;19;129366;-46
2022/08/29 09:18:08;;;;;;;12.98;3.83;;;;;;;23.29;34.86;102160.78;16141645;19;129927;-45
2022/08/29 09:23:46;;;;;;;7.63;2.80;;;;;;;23.29;35.16;102164.41;16139242;19;129052;-45
2022/08/29 09:29:10;;;;;;;17.45;3.55;;;;;;;23.30;34.72;102149.38;16140102;19;129042;-45
2022/08/29 09:34:37;;;;;;;9.30;2.70;;;;;;;23.30;34.92;102157.75;16135861;19;132113;-44
2022/08/29 09:40:19;;;;;;;5.85;3.00;;;;;;;23.32;34.95;102160.31;16140567;19;129739;-44
2022/08/29 09:46:22;;;;;;;7.28;2.75;;;;;;;23.33;34.10;102157.25;16126471;19;129196;-45
2022/08/29 09:51:47;;;;;;;7.60;2.67;;;;;;;23.34;34.10;102147.78;16134780;19;129993;-45
2022/08/29 09:57:12;;;;;;;10.05;2.55;;;;;;;23.35;34.26;102141.09;16136487;19;128986;-48
2022/08/29 10:02:53;;;;;;;7.57;2.80;;;;;;;23.37;34.45;102140.00;16134551;19;129853;-45
2022/08/29 10:08:23;;;;;;;4.80;2.75;;;;;;;23.37;34.51;102140.84;16136308;19;129596;-46
2022/08/29 10:13:55;;;;;;;4.07;2.42;;;;;;;23.37;34.44;102138.06;16133187;19;129486;-45
2022/08/29 10:19:26;;;;;;;6.22;2.65;;;;;;;23.35;34.08;102134.66;16135331;19;130315;-46
2022/08/29 10:25:19;;;;;;;5.90;2.33;;;;;;;23.37;34.45;102132.47;16135416;19;129390;-47
2022/08/29 10:31:04;;;;;;;5.30;2.58;;;;;;;23.34;34.72;102133.81;16134219;19;129601;-47
2022/08/29 10:36:32;;;;;;;4.35;2.03;;;;;;;23.33;34.40;102122.88;16126855;19;130407;-49
2022/08/29 10:42:18;;;;;;;6.53;2.95;;;;;;;23.33;34.30;102123.75;16130177;19;130370;-48
2022/08/29 10:48:00;;;;;;;6.97;2.58;;;;;;;23.33;34.63;102120.94;16140221;19;129397;-51
2022/08/29 10:53:37;;;;;;;3.78;2.00;;;;;;;23.33;34.49;102122.88;16143070;19;130565;-48
2022/08/29 10:59:12;;;;;;;5.07;2.05;;;;;;;23.33;34.46;102106.13;16145333;19;130478;-47
2022/08/29 11:04:43;;;;;;;5.53;2.50;;;;;;;23.35;34.65;102099.22;16144563;19;129471;-48
2022/08/29 11:10:14;;;;;;;10.85;2.83;;;;;;;23.38;34.80;102099.81;16146267;19;130443;-47
2022/08/29 11:15:38;;;;;;;13.85;3.03;;;;;;;23.39;34.72;102084.72;16139408;19;129046;-46
2022/08/29 11:21:08;;;;;;;10.00;2.47;;;;;;;23.41;34.67;102076.94;16145054;19;129304;-43
2022/08/29 11:26:42;;;;;;;8.40;3.00;;;;;;;23.43;34.56;102084.00;16147746;19;129442;-44
2022/08/29 11:32:31;;;;;;;4.85;2.42;;;;;;;23.44;34.49;102068.94;16144932;19;129059;-52
2022/08/29 11:38:40;;;;;;;5.45;2.55;;;;;;;23.45;34.34;102076.19;16145143;19;129340;-44
2022/08/29 11:44:17;;;;;;;6.10;2.70;;;;;;;23.49;34.06;102065.41;16145474;19;129076;-45
2022/08/29 11:49:44;;;;;;;6.22;2.55;;;;;;;23.49;34.29;102059.81;16141651;19;129074;-46
2022/08/29 11:55:22;;;;;;;5.28;2.67;;;;;;;23.49;34.15;102062.59;16143711;19;129097;-49
2022/08/29 12:00:53;;;;;;;6.95;2.30;;;;;;;23.50;34.27;102067.09;16144152;19;129448;-53
2022/08/29 12:06:23;;;;;;;8.95;2.30;;;;;;;23.50;34.16;102050.34;16145549;19;129944;-53
2022/08/29 12:12:11;;;;;;;5.55;2.30;;;;;;;23.50;33.89;102048.38;16144399;19;130110;-52
2022/08/29 12:17:33;;;;;;;4.72;1.95;;;;;;;23.50;33.53;102028.81;16144124;19;129702;-52
2022/08/29 12:23:23;;;;;;;7.38;2.13;;;;;;;23.54;34.06;102031.94;16144331;19;129894;-53
2022/08/29 12:28:57;;;;;;;6.53;1.98;;;;;;;23.58;33.50;102018.31;16145296;19;130505;-53
2022/08/29 12:34:34;;;;;;;3.97;2.22;;;;;;;23.60;34.01;102017.00;16140250;19;129624;-54
2022/08/29 12:40:27;;;;;;;4.82;2.25;;;;;;;23.60;33.68;102017.00;16140243;19;130152;-44
2022/08/29 12:45:51;;;;;;;5.28;2.38;;;;;;;23.58;33.85;102023.91;16141736;19;130656;-44
2022/08/29 12:51:55;;;;;;;4.63;1.80;;;;;;;23.57;33.39;102008.28;16142038;19;128999;-46
2022/08/29 12:57:22;;;;;;;5.47;2.22;;;;;;;23.61;33.41;102003.88;16133341;19;131988;-45
2022/08/29 13:03:00;;;;;;;9.20;2.40;;;;;;;23.62;33.11;101997.19;16129509;19;129625;-47
2022/08/29 13:08:28;;;;;;;6.38;2.10;;;;;;;23.63;33.87;101990.50;16129970;19;129742;-44
2022/08/29 13:14:01;;;;;;;7.03;2.50;;;;;;;23.64;33.75;101987.44;16131891;19;129892;-43
2022/08/29 13:19:23;;;;;;;4.68;2.17;;;;;;;23.66;33.67;101981.63;16129546;19;129663;-45
2022/08/29 13:24:45;;;;;;;6.10;2.60;;;;;;;23.67;33.77;101994.50;16131697;19;129752;-44
2022/08/29 13:30:07;;;;;;;5.30;2.83;;;;;;;23.67;33.40;101983.31;16140917;19;129425;-47
2022/08/29 13:35:32;;;;;;;4.20;2.33;;;;;;;23.69;33.73;101969.09;16136216;19;129068;-45
2022/08/29 13:40:58;;;;;;;5.63;2.30;;;;;;;23.71;33.14;101970.50;16137860;19;130340;-44
2022/08/29 13:46:26;;;;;;;5.68;2.17;;;;;;;23.72;33.44;101960.19;16137257;19;129663;-44
2022/08/29 13:51:48;;;;;;;6.38;2.45;;;;;;;23.72;33.83;101957.41;16139006;19;129488;-49
2022/08/29 13:57:23;;;;;;;3.45;2.00;;;;;;;23.73;33.16;101959.09;16133797;19;129232;-44
2022/08/29 14:02:45;;;;;;;3.95;2.22;;;;;;;23.73;33.19;101957.13;16140427;19;130079;-43
2022/08/29 14:08:10;;;;;;;5.25;2.08;;;;;;;23.75;33.61;101957.72;16138027;19;129121;-42
2022/08/29 14:13:31;;;;;;;5.15;2.38;;;;;;;23.77;33.94;101954.66;16134832;19;129256;-46
2022/08/29 14:18:53;;;;;;;6.07;2.25;;;;;;;23.79;33.41;101946.88;16129925;19;129393;-42
2022/08/29 14:24:15;;;;;;;5.32;2.38;;;;;;;23.78;33.75;101934.00;16136615;19;130600;-47
2022/08/29 14:29:39;;;;;;;4.85;2.20;;;;;;;23.79;33.29;101930.13;16133628;19;130206;-47
2022/08/29 14:35:01;;;;;;;6.53;1.80;;;;;;;23.80;33.27;101929.00;16132016;19;133757;-46
2022/08/29 14:40:23;;;;;;;4.20;2.08;;;;;;;23.80;33.10;101918.69;16133138;19;129697;-43
2022/08/29 14:45:46;;;;;;;4.85;2.15;;;;;;;23.81;32.99;101927.91;16133245;19;130522;-45
2022/08/29 14:51:08;;;;;;;4.07;1.85;;;;;;;23.81;33.15;101914.81;16132580;19;129453;-48
2022/08/29 14:56:32;;;;;;;4.70;2.30;;;;;;;23.83;33.25;101908.94;16130238;19;130458;-46
2022/08/29 15:02:11;;;;;;;6.03;1.70;;;;;;;23.81;33.22;101912.00;16132352;19;128807;-45
2022/08/29 15:07:33;;;;;;;5.45;1.90;;;;;;;23.79;32.87;101904.97;16130302;19;130146;-45
2022/08/29 15:12:55;;;;;;;4.00;2.00;;;;;;;23.76;32.85;101897.09;16122826;19;130373;-46
2022/08/29 15:18:20;;;;;;;6.60;1.98;;;;;;;23.75;32.94;101895.44;16129451;19;129928;-43
2022/08/29 15:24:04;;;;;;;4.00;1.70;;;;;;;23.74;33.38;101888.97;16131765;19;129296;-46
2022/08/29 15:29:26;;;;;;;5.50;2.20;;;;;;;23.75;33.22;101881.47;16133395;19;129801;-45
2022/08/29 15:34:48;;;;;;;5.03;2.03;;;;;;;23.76;33.24;101878.41;16146571;19;128977;-44
2022/08/29 15:40:11;;;;;;;7.88;2.20;;;;;;;23.77;33.33;101877.28;16145498;19;129436;-43
2022/08/29 15:45:34;;;;;;;7.35;2.35;;;;;;;23.78;33.24;101879.00;16144595;19;130710;-43
2022/08/29 15:50:56;;;;;;;4.40;2.10;;;;;;;23.80;33.02;101875.94;16144978;19;128923;-44
2022/08/29 15:56:18;;;;;;;5.07;2.20;;;;;;;23.80;33.67;101882.38;16140582;19;129246;-46
2022/08/29 16:01:49;;;;;;;6.05;2.50;;;;;;;23.79;33.65;101880.69;16145365;19;130775;-47
2022/08/29 16:07:14;;;;;;;5.60;2.42;;;;;;;23.77;33.35;101877.28;16145783;19;130534;-49
2022/08/29 16:12:36;;;;;;;4.55;1.88;;;;;;;23.74;33.81;101865.81;16145648;19;129529;-46
2022/08/29 16:17:58;;;;;;;7.85;2.45;;;;;;;23.72;33.79;101879.19;16138169;19;130828;-46
2022/08/29 16:23:20;;;;;;;6.32;2.33;;;;;;;23.69;33.65;101869.38;16145285;19;129632;-44
2022/08/29 16:28:42;;;;;;;4.45;2.22;;;;;;;23.68;33.79;101867.69;16142492;19;129585;-46
2022/08/29 16:34:04;;;;;;;5.07;2.15;;;;;;;23.66;33.42;101865.13;16137984;19;129598;-45
2022/08/29 16:39:27;;;;;;;7.00;1.95;;;;;;;23.65;33.69;101870.97;16143046;19;129817;-46
2022/08/29 16:44:49;;;;;;;6.47;2.50;;;;;;;23.63;33.73;101874.00;16139432;19;130475;-48
2022/08/29 16:50:11;;;;;;;3.38;1.65;;;;;;;23.62;33.77;101875.16;16145297;19;130405;-46
2022/08/29 16:55:32;;;;;;;6.57;1.95;;;;;;;23.59;33.69;101861.69;16139960;19;128871;-44
2022/08/29 17:00:55;;;;;;;5.03;1.90;;;;;;;23.58;33.79;101868.38;16142888;19;129189;-48
2022/08/29 17:06:16;;;;;;;3.85;1.70;;;;;;;23.55;33.81;101866.06;16141204;19;129298;-44
2022/08/29 17:17:01;;;;;;;3.10;1.65;;;;;;;23.51;33.92;101850.91;16136377;19;129659;-48
2022/08/29 17:22:23;;;;;;;7.30;1.70;;;;;;;23.49;34.01;101848.38;16141325;19;129403;-50
2022/08/29 17:27:45;;;;;;;10.25;2.25;;;;;;;23.49;33.76;101858.72;16142274;19;129311;-46
2022/08/29 17:33:28;;;;;;;5.22;2.35;;;;;;;23.48;33.88;101843.91;16141152;19;129376;-44
2022/08/29 17:38:50;;;;;;;4.35;2.00;;;;;;;23.49;33.87;101853.13;16140928;19;129835;-44
2022/08/29 17:44:12;;;;;;;5.30;1.88;;;;;;;23.49;33.71;101853.13;16141786;19;129354;-46
2022/08/29 17:49:34;;;;;;;7.47;2.30;;;;;;;23.47;33.46;101852.53;16132897;19;128850;-45
2022/08/29 17:54:57;;;;;;;4.50;2.05;;;;;;;23.47;33.66;101852.53;16138039;19;128925;-45
2022/08/29 18:00:20;;;;;;;6.25;2.08;;;;;;;23.45;33.38;101851.94;16136589;19;129034;-47
2022/08/29 18:05:42;;;;;;;6.50;2.50;;;;;;;23.42;33.51;101852.47;16136749;19;129862;-45
2022/08/29 18:11:04;;;;;;;4.60;2.38;;;;;;;23.40;33.50;101857.44;16135263;19;129323;-45
2022/08/29 18:16:27;;;;;;;10.10;2.55;;;;;;;23.38;33.64;101856.88;16131743;19;129062;-43
2022/08/29 18:21:50;;;;;;;5.47;1.90;;;;;;;23.39;33.66;101858.53;16131564;19;129679;-46
2022/08/29 18:27:12;;;;;;;9.75;2.20;;;;;;;23.40;33.27;101865.81;16138321;19;129237;-45
2022/08/29 18:32:34;;;;;;;14.80;2.65;;;;;;;23.39;33.61;101858.53;16125954;19;129841;-44
2022/08/29 18:37:57;;;;;;;5.05;2.03;;;;;;;23.40;33.93;101860.25;16129094;19;129553;-45
2022/08/29 18:43:21;;;;;;;9.30;2.15;;;;;;;23.44;34.07;101867.00;16134331;19;129470;-44
2022/08/29 18:48:43;;;;;;;9.27;2.42;;;;;;;23.48;34.19;101862.63;16129558;19;129188;-43
2022/08/29 18:54:05;;;;;;;8.98;2.42;;;;;;;23.50;34.32;101866.00;16133589;19;131503;-46
2022/08/29 18:59:28;;;;;;;8.48;2.20;;;;;;;23.49;34.70;101883.84;16132569;19;129301;-46
2022/08/29 19:04:50;;;;;;;7.47;1.77;;;;;;;23.50;34.25;101883.59;16136618;19;129095;-49
2022/08/29 19:10:12;;;;;;;8.32;2.28;;;;;;;23.50;34.59;101885.56;16145723;19;129375;-45
2022/08/29 19:15:38;;;;;;;6.45;2.08;;;;;;;23.49;34.82;101886.66;16146688;19;129612;-45
2022/08/29 19:21:05;;;;;;;18.63;2.88;;;;;;;23.49;34.90;101897.81;16145284;19;129736;-44
2022/08/29 19:26:31;;;;;;;8.25;2.08;;;;;;;23.51;34.96;101906.75;16147494;19;129919;-47
2022/08/29 19:31:52;;;;;;;14.55;2.22;;;;;;;23.51;34.93;101902.03;16149539;19;129421;-45
2022/08/29 19:37:14;;;;;;;7.40;2.15;;;;;;;23.51;34.85;101898.38;16143848;19;129240;-44
2022/08/29 19:42:37;;;;;;;9.55;2.17;;;;;;;23.53;34.89;101906.53;16144944;19;129519;-44
2022/08/29 19:47:59;;;;;;;8.52;2.20;;;;;;;23.51;35.21;101907.63;16144181;19;129144;-46
2022/08/29 19:53:22;;;;;;;14.52;3.05;;;;;;;23.51;35.08;101907.63;16147179;19;129591;-45
2022/08/29 19:58:47;;;;;;;10.70;1.98;;;;;;;23.51;35.32;101901.19;16141651;19;128892;-44
2022/08/29 20:04:10;;;;;;;24.20;2.47;;;;;;;23.55;35.34;101901.53;16144259;19;130164;-44
2022/08/29 20:09:32;;;;;;;15.85;2.63;;;;;;;23.54;35.20;101911.00;16144917;19;130144;-44
2022/08/29 20:14:55;;;;;;;11.68;2.08;;;;;;;23.52;35.48;101905.66;16144155;19;130190;-43
2022/08/29 20:20:23;;;;;;;10.05;2.13;;;;;;;23.52;35.39;101908.47;16140033;19;129298;-45
2022/08/29 20:25:45;;;;;;;16.63;2.47;;;;;;;23.49;35.46;101904.25;16136280;19;130917;-43
2022/08/29 20:31:07;;;;;;;17.15;2.53;;;;;;;23.49;35.28;101903.41;16140093;19;129736;-44
2022/08/29 20:42:09;;;;;;;12.90;2.28;;;;;;;23.48;35.57;101907.31;16141582;19;130007;-43
2022/08/29 20:47:31;;;;;;;9.00;1.95;;;;;;;23.49;35.84;101914.56;16137813;19;129879;-43
2022/08/29 20:52:53;;;;;;;17.25;2.22;;;;;;;23.48;35.56;101912.88;16140379;19;129829;-44
2022/08/29 20:58:15;;;;;;;7.80;2.13;;;;;;;23.46;35.37;101915.09;16134914;19;129606;-43
2022/08/29 21:09:17;;;;;;;10.77;1.80;;;;;;;23.36;35.66;101915.75;16140040;19;128902;-48
2022/08/29 21:14:39;;;;;;;6.75;2.10;;;;;;;23.32;35.24;101921.00;16138869;19;130044;-45
2022/08/29 21:20:02;;;;;;;3.75;1.80;;;;;;;23.28;35.66;101917.03;16137735;19;129523;-43
2022/08/29 21:25:24;;;;;;;8.07;1.88;;;;;;;23.27;36.01;101918.13;16142247;19;129461;-45
2022/08/29 21:30:45;;;;;;;8.45;1.95;;;;;;;23.24;35.68;101915.88;16138746;19;131036;-45
2022/08/29 21:36:17;;;;;;;6.68;1.60;;;;;;;23.23;35.75;101911.38;16136876;19;129533;-44
2022/08/29 21:41:42;;;;;;;3.45;1.50;;;;;;;23.19;35.90;101913.84;16139033;19;130790;-45
2022/08/29 21:47:05;;;;;;;6.97;1.80;;;;;;;23.18;35.84;101922.44;16136548;19;129246;-44
2022/08/29 21:52:27;;;;;;;6.90;1.80;;;;;;;23.16;36.10;101917.13;16137355;19;129383;-44
2022/08/29 22:03:13;;;;;;;4.47;1.42;;;;;;;23.14;36.06;101924.91;16136522;19;130477;-45
2022/08/29 22:08:36;;;;;;;3.15;1.45;;;;;;;23.13;36.49;101920.41;16135567;19;129440;-44
2022/08/29 22:13:57;;;;;;;3.80;1.55;;;;;;;23.12;36.24;101934.63;16134871;19;129193;-44
2022/08/29 22:19:19;;;;;;;5.10;1.17;;;;;;;23.11;36.33;101935.75;16130339;19;129705;-44
2022/08/29 22:24:41;;;;;;;4.05;1.60;;;;;;;23.09;36.65;101938.75;16129270;19;129248;-44
2022/08/29 22:30:05;;;;;;;4.40;1.30;;;;;;;23.09;36.34;101938.75;16135359;19;129582;-44
2022/08/29 22:35:27;;;;;;;1.92;1.20;;;;;;;23.08;36.09;101942.66;16136448;19;130107;-44
2022/08/29 22:40:49;;;;;;;1.95;1.20;;;;;;;23.07;36.79;101929.81;16137692;19;129308;-48
2022/08/29 22:46:15;;;;;;;2.90;1.40;;;;;;;23.07;36.62;101929.81;16149267;19;131216;-43
2022/08/29 22:51:37;;;;;;;2.97;1.23;;;;;;;23.06;36.82;101928.13;16150202;19;129423;-43
2022/08/29 22:56:59;;;;;;;2.88;1.50;;;;;;;23.06;36.96;101922.53;16146800;19;129589;-44
2022/08/29 23:02:21;;;;;;;3.17;1.60;;;;;;;23.03;36.97;101912.72;16145525;19;130102;-43
2022/08/29 23:07:43;;;;;;;3.33;1.50;;;;;;;23.03;36.88;101923.03;16149691;19;129647;-43
2022/08/29 23:13:04;;;;;;;2.60;1.10;;;;;;;23.02;36.53;101918.56;16147571;19;129419;-43
2022/08/29 23:18:27;;;;;;;3.20;1.58;;;;;;;23.02;37.16;101915.75;16144859;19;129120;-44
2022/08/29 23:23:50;;;;;;;2.33;1.00;;;;;;;23.01;37.07;101909.34;16147018;19;129731;-47
2022/08/29 23:29:12;;;;;;;2.53;1.20;;;;;;;23.01;37.10;101914.06;16148235;19;130172;-43
2022/08/29 23:34:34;;;;;;;3.53;1.40;;;;;;;22.99;37.20;101905.97;16145715;19;129831;-45
2022/08/29 23:39:55;;;;;;;2.13;1.10;;;;;;;22.98;37.19;101904.25;16142699;19;129721;-48
2022/08/29 23:45:18;;;;;;;2.08;1.25;;;;;;;22.99;37.27;101916.25;16145009;19;129332;-44
2022/08/29 23:50:40;;;;;;;3.17;1.40;;;;;;;22.97;37.34;101910.94;16146721;19;128932;-43
2022/08/29 23:56:11;;;;;;;3.45;1.17;;;;;;;22.98;37.39;101917.34;16144635;19;129364;-45
